WetterOnline ( http://www.wetteronline.de )

Wetter aktuell Sonthofen/Oberallgäu

Aktuelles Wetter: Oberstdorf (812m)

6-stündlich | Neueste Meldungen
Ortszeit Temperatur Wetter
Sa, 21.07. 20:00 16.2° C bewölkt
Sa, 21.07. 14:00 18.3° C bedeckt
Sa, 21.07. 8:00 14.5° C leichter Regen
Sa, 21.07. 2:00 14.3° C leichter Regen
Fr, 20.07. 20:00 17.0° C leichter Regen
Fr, 20.07. 14:00 24.3° C wolkig
Fr, 20.07. 8:00 16.6° C leicht bewölkt
Fr, 20.07. 2:00 12.6° C wolkenlos
Ortszeit Temperatur Wetter
So, 22.07. 0:30 14.3° C Regen
So, 22.07. 0:20 14.3° C Regen
So, 22.07. 0:10 14.3° C Sprühregen
So, 22.07. 0:00 14.3° C Sprühregen
Sa, 21.07. 23:50 14.3° C Sprühregen
Sa, 21.07. 23:40 14.3° C Sprühregen
Sa, 21.07. 23:30 14.4° C Sprühregen
Sa, 21.07. 23:00 14.5° C bedeckt
Sa, 21.07. 22:30 14.6° C bedeckt
Sa, 21.07. 22:00 14.6° C leichter Regen
Sa, 21.07. 21:30 14.9° C leichter Regen
Ortszeit Relative Feuchte Sichtweite
Sa, 21.07. 20:00 82% 50 km
Sa, 21.07. 14:00 71% 55 km
Sa, 21.07. 8:00 93% 12 km
Sa, 21.07. 2:00 92% 25 km
Fr, 20.07. 20:00 81% 22 km
Fr, 20.07. 14:00 53% 35 km
Fr, 20.07. 8:00 79% 23 km
Fr, 20.07. 2:00 89% 23 km
Ortszeit Relative Feuchte Sichtweite
So, 22.07. 0:30 96% 2.7 km
So, 22.07. 0:20 96% -
So, 22.07. 0:10 95% -
So, 22.07. 0:00 96% 4.8 km
Sa, 21.07. 23:50 96% -
Sa, 21.07. 23:40 96% -
Sa, 21.07. 23:30 96% 4.5 km
Sa, 21.07. 23:00 94% 28 km
Sa, 21.07. 22:30 94% 30 km
Sa, 21.07. 22:00 94% 8 km
Sa, 21.07. 21:30 91% 7 km
Ortszeit Niederschlagsmenge Niederschlagsart
Sa, 21.07. 20:00 0.5 l/m2 in 12 Std. Regen
Sa, 21.07. 14:00 0.5 l/m2 in 6 Std. Regen
Sa, 21.07. 8:00 3 l/m2 in 12 Std. Regen
Sa, 21.07. 2:00 2 l/m2 in 6 Std. Regen
Fr, 20.07. 20:00 0.3 l/m2 in 12 Std. Regen
Fr, 20.07. 14:00 0.1 l/m2 in 6 Std. -
Fr, 20.07. 8:00 0.0 l/m2 in 12 Std. -
Fr, 20.07. 2:00 0.0 l/m2 in 6 Std. -
Ortszeit Niederschlagsmenge Niederschlagsart
So, 22.07. 0:30 0.7 l/m2 in 1 Std. -
So, 22.07. 0:20 keine Meldung -
So, 22.07. 0:10 keine Meldung -
So, 22.07. 0:00 1.5 l/m2 in 1 Std. Regen
Sa, 21.07. 23:50 keine Meldung -
Sa, 21.07. 23:40 keine Meldung -
Sa, 21.07. 23:30 1.1 l/m2 in 1 Std. -
Sa, 21.07. 23:00 0.2 l/m2 in 1 Std. Regen
Sa, 21.07. 22:30 0.2 l/m2 in 1 Std. Schneeregen
Sa, 21.07. 22:00 0.8 l/m2 in 1 Std. Regen
Sa, 21.07. 21:30 0.3 l/m2 in 1 Std. -
Ortszeit Stärke Spitze Richtung
km/h Bft. km/h Grad Sektor
Sa, 21.07. 20:00 7 2 36 110° O
Sa, 21.07. 14:00 0 0 14 - -
Sa, 21.07. 8:00 6 1 9 160° S
Sa, 21.07. 2:00 9 2 43 160° S
Fr, 20.07. 20:00 14 3 50 130° SO
Fr, 20.07. 14:00 13 3 31 140° SO
Fr, 20.07. 8:00 4 1 11 100° O
Fr, 20.07. 2:00 6 1 24 130° SO
Ortszeit Stärke Spitze Richtung
km/h Bft. km/h Grad Sektor
So, 22.07. 0:30 7 2 7 170° S
So, 22.07. 0:20 7 2 - 170° S
So, 22.07. 0:10 7 2 - 170° S
So, 22.07. 0:00 7 2 7 160° S
Sa, 21.07. 23:50 7 2 - 160° S
Sa, 21.07. 23:40 4 1 - 190° S
Sa, 21.07. 23:30 7 2 7 160° S
Sa, 21.07. 23:00 6 1 11 170° S
Sa, 21.07. 22:30 7 2 11 170° S
Sa, 21.07. 22:00 9 2 13 180° S
Sa, 21.07. 21:30 9 2 11 170° S
Ortszeit Untergrenze Bedeckung Gattung
total tief tief mittel hoch
Sa, 21.07. 20:00 990 m 7/8 7/8 - - -
Sa, 21.07. 14:00 2700 m 8/8 8/8 - - -
Sa, 21.07. 8:00 1350 m 7/8 7/8 - - -
Sa, 21.07. 2:00 2100 m 8/8 8/8 - - -
Fr, 20.07. 20:00 1800 m 8/8 8/8 - - -
Fr, 20.07. 14:00 1800 m 6/8 6/8 - - -
Fr, 20.07. 8:00 2700 m 2/8 2/8 - - -
Fr, 20.07. 2:00 - 0/8 0/8 - - -
Ortszeit Bedeckungsgrad in Achtel und Wolkenuntergrenze
So, 22.07. 0:30 1(930m) 6(1140m) 7(1380m)
So, 22.07. 0:20 1(930m) 6(1140m) 7(1380m)
So, 22.07. 0:10 1(930m) 5(1140m) 7(1410m)
So, 22.07. 0:00 6(1020m) 7(1260m) 7(1470m)
Sa, 21.07. 23:50 6(1020m) 7(1260m) 7(1470m)
Sa, 21.07. 23:40 1(810m) 7(1230m) 7(1500m)
Sa, 21.07. 23:30 4(780m) 8(1200m) 8(1500m)
Sa, 21.07. 23:00 5(780m) 8(1500m)
Sa, 21.07. 22:30 1(270m) 6(1170m) 8(1470m)
Sa, 21.07. 22:00 2(1230m) 6(2100m) 8(2400m)
Sa, 21.07. 21:30 2(690m) 4(1500m) 7(1800m)
Ortszeit Stationsdruck (hPa) Tendenz (hPa in 3 Std.)
Sa, 21.07. 20:00 922 + 0,7
Sa, 21.07. 14:00 922 + 0,1
Sa, 21.07. 8:00 922 + 0,3
Sa, 21.07. 2:00 922 - 2,1
Fr, 20.07. 20:00 923 + 1,2
Fr, 20.07. 14:00 922 - 0,7
Fr, 20.07. 8:00 923 - 0,3
Fr, 20.07. 2:00 925 - 0,2
Ortszeit Stationsdruck (hPa) Tendenz (hPa in 3 Std.)
So, 22.07. 0:30 924 + 0,6
So, 22.07. 0:20 924 keine Meldung
So, 22.07. 0:10 924 keine Meldung
So, 22.07. 0:00 924 + 0,9
Sa, 21.07. 23:50 924 keine Meldung
Sa, 21.07. 23:40 924 keine Meldung
Sa, 21.07. 23:30 924 + 1,2
Sa, 21.07. 23:00 923 + 1,2
Sa, 21.07. 22:30 923 + 1,0
Sa, 21.07. 22:00 923 + 0,9
Sa, 21.07. 21:30 923 + 0,9
Ortszeit Schneehöhe (cm)
Sa, 21.07. 20:00 -
Sa, 21.07. 14:00 -
Sa, 21.07. 8:00 -
Sa, 21.07. 2:00 -
Fr, 20.07. 20:00 -
Fr, 20.07. 14:00 -
Fr, 20.07. 8:00 -
Fr, 20.07. 2:00 -
Ortszeit Schneehöhe (cm)
So, 22.07. 0:30 -
So, 22.07. 0:20 -
So, 22.07. 0:10 -
So, 22.07. 0:00 -
Sa, 21.07. 23:50 -
Sa, 21.07. 23:40 -
Sa, 21.07. 23:30 -
Sa, 21.07. 23:00 -
Sa, 21.07. 22:30 -
Sa, 21.07. 22:00 -
Sa, 21.07. 21:30 -
Link zu dieser Seite / Seite empfehlen

Das Wetter in ...